sensor_id;sensor_type;location;lat;lon;timestamp;temperature;humidity
71304;DHT22;59091;47.446;19.148;2023-12-29T00:01:31;3.44;77.81
71304;DHT22;59091;47.446;19.148;2023-12-29T00:03:57;3.49;77.90
71304;DHT22;59091;47.446;19.148;2023-12-29T00:06:22;3.46;78.25
71304;DHT22;59091;47.446;19.148;2023-12-29T00:08:48;3.49;78.18
71304;DHT22;59091;47.446;19.148;2023-12-29T00:11:19;3.46;78.11
71304;DHT22;59091;47.446;19.148;2023-12-29T00:13:46;3.44;78.23
71304;DHT22;59091;47.446;19.148;2023-12-29T00:16:11;3.46;78.18
71304;DHT22;59091;47.446;19.148;2023-12-29T00:18:37;3.46;78.17
71304;DHT22;59091;47.446;19.148;2023-12-29T00:21:03;3.44;78.12
71304;DHT22;59091;47.446;19.148;2023-12-29T00:23:28;3.46;78.06
71304;DHT22;59091;47.446;19.148;2023-12-29T00:25:54;3.47;77.96
71304;DHT22;59091;47.446;19.148;2023-12-29T00:28:19;3.46;78.01
71304;DHT22;59091;47.446;19.148;2023-12-29T00:30:45;3.49;78.27
71304;DHT22;59091;47.446;19.148;2023-12-29T00:33:10;3.49;78.46
71304;DHT22;59091;47.446;19.148;2023-12-29T00:35:38;3.50;78.55
71304;DHT22;59091;47.446;19.148;2023-12-29T00:38:04;3.49;78.67
71304;DHT22;59091;47.446;19.148;2023-12-29T00:40:30;3.54;78.61
71304;DHT22;59091;47.446;19.148;2023-12-29T00:42:55;3.54;78.65
71304;DHT22;59091;47.446;19.148;2023-12-29T00:45:21;3.54;78.85
71304;DHT22;59091;47.446;19.148;2023-12-29T00:47:46;3.57;78.82
71304;DHT22;59091;47.446;19.148;2023-12-29T00:50:13;3.59;78.81
71304;DHT22;59091;47.446;19.148;2023-12-29T00:52:39;3.61;78.78
71304;DHT22;59091;47.446;19.148;2023-12-29T00:55:05;3.64;78.78
71304;DHT22;59091;47.446;19.148;2023-12-29T00:57:30;3.63;78.97
71304;DHT22;59091;47.446;19.148;2023-12-29T00:59:56;3.69;79.23
71304;DHT22;59091;47.446;19.148;2023-12-29T01:02:21;3.70;79.37
71304;DHT22;59091;47.446;19.148;2023-12-29T01:04:48;3.73;79.42
71304;DHT22;59091;47.446;19.148;2023-12-29T01:07:13;3.73;79.41
71304;DHT22;59091;47.446;19.148;2023-12-29T01:09:39;3.74;79.32
71304;DHT22;59091;47.446;19.148;2023-12-29T01:12:07;3.74;79.24
71304;DHT22;59091;47.446;19.148;2023-12-29T01:14:32;3.70;79.18
71304;DHT22;59091;47.446;19.148;2023-12-29T01:16:58;3.67;79.28
71304;DHT22;59091;47.446;19.148;2023-12-29T01:19:23;3.67;79.15
71304;DHT22;59091;47.446;19.148;2023-12-29T01:21:49;3.71;79.18
71304;DHT22;59091;47.446;19.148;2023-12-29T01:24:14;3.70;79.16
71304;DHT22;59091;47.446;19.148;2023-12-29T01:26:40;3.69;79.06
71304;DHT22;59091;47.446;19.148;2023-12-29T01:29:05;3.66;79.08
71304;DHT22;59091;47.446;19.148;2023-12-29T01:31:31;3.69;79.02
71304;DHT22;59091;47.446;19.148;2023-12-29T01:33:57;3.71;79.05
71304;DHT22;59091;47.446;19.148;2023-12-29T01:36:23;3.73;79.15
71304;DHT22;59091;47.446;19.148;2023-12-29T01:38:48;3.71;79.26
71304;DHT22;59091;47.446;19.148;2023-12-29T01:41:14;3.74;79.21
71304;DHT22;59091;47.446;19.148;2023-12-29T01:44:19;3.66;78.96
71304;DHT22;59091;47.446;19.148;2023-12-29T01:46:45;3.73;79.27
71304;DHT22;59091;47.446;19.148;2023-12-29T01:49:14;3.74;79.38
71304;DHT22;59091;47.446;19.148;2023-12-29T01:51:41;3.77;79.50
71304;DHT22;59091;47.446;19.148;2023-12-29T01:54:07;3.77;79.53
71304;DHT22;59091;47.446;19.148;2023-12-29T01:56:33;3.80;79.47
71304;DHT22;59091;47.446;19.148;2023-12-29T01:58:59;3.77;79.52
71304;DHT22;59091;47.446;19.148;2023-12-29T02:01:24;3.80;79.54
71304;DHT22;59091;47.446;19.148;2023-12-29T02:03:49;3.84;79.54
71304;DHT22;59091;47.446;19.148;2023-12-29T02:06:16;3.85;79.45
71304;DHT22;59091;47.446;19.148;2023-12-29T02:08:41;3.84;79.45
71304;DHT22;59091;47.446;19.148;2023-12-29T02:11:07;3.87;79.49
71304;DHT22;59091;47.446;19.148;2023-12-29T02:13:32;3.90;79.43
71304;DHT22;59091;47.446;19.148;2023-12-29T02:16:09;3.87;79.35
71304;DHT22;59091;47.446;19.148;2023-12-29T02:18:38;3.85;79.43
71304;DHT22;59091;47.446;19.148;2023-12-29T02:21:04;3.87;79.70
71304;DHT22;59091;47.446;19.148;2023-12-29T02:23:30;3.88;79.85
71304;DHT22;59091;47.446;19.148;2023-12-29T02:26:01;3.85;80.10
71304;DHT22;59091;47.446;19.148;2023-12-29T02:28:26;3.87;80.32
71304;DHT22;59091;47.446;19.148;2023-12-29T02:31:07;3.84;80.45
71304;DHT22;59091;47.446;19.148;2023-12-29T02:33:39;3.91;80.90
71304;DHT22;59091;47.446;19.148;2023-12-29T02:36:06;3.92;81.11
71304;DHT22;59091;47.446;19.148;2023-12-29T02:38:32;3.87;81.18
71304;DHT22;59091;47.446;19.148;2023-12-29T02:40:59;3.87;81.42
71304;DHT22;59091;47.446;19.148;2023-12-29T02:43:25;3.88;81.79
71304;DHT22;59091;47.446;19.148;2023-12-29T02:45:50;3.84;81.70
71304;DHT22;59091;47.446;19.148;2023-12-29T02:48:16;3.88;81.86
71304;DHT22;59091;47.446;19.148;2023-12-29T02:50:41;3.90;82.09
71304;DHT22;59091;47.446;19.148;2023-12-29T02:53:07;3.92;82.19
71304;DHT22;59091;47.446;19.148;2023-12-29T02:55:33;3.97;82.32
71304;DHT22;59091;47.446;19.148;2023-12-29T02:57:58;3.95;82.34
71304;DHT22;59091;47.446;19.148;2023-12-29T03:00:23;3.95;82.45
71304;DHT22;59091;47.446;19.148;2023-12-29T03:02:49;3.98;82.51
71304;DHT22;59091;47.446;19.148;2023-12-29T03:05:14;3.99;82.50
71304;DHT22;59091;47.446;19.148;2023-12-29T03:07:40;4.04;82.50
71304;DHT22;59091;47.446;19.148;2023-12-29T03:10:06;4.04;82.61
71304;DHT22;59091;47.446;19.148;2023-12-29T03:12:32;4.09;82.52
71304;DHT22;59091;47.446;19.148;2023-12-29T03:14:57;4.09;82.47
71304;DHT22;59091;47.446;19.148;2023-12-29T03:17:23;4.13;82.44
71304;DHT22;59091;47.446;19.148;2023-12-29T03:19:48;4.12;82.53
71304;DHT22;59091;47.446;19.148;2023-12-29T03:22:14;4.12;82.48
71304;DHT22;59091;47.446;19.148;2023-12-29T03:24:42;4.15;82.46
71304;DHT22;59091;47.446;19.148;2023-12-29T03:27:08;4.19;82.40
71304;DHT22;59091;47.446;19.148;2023-12-29T03:29:33;4.22;82.33
71304;DHT22;59091;47.446;19.148;2023-12-29T03:31:59;4.21;82.36
71304;DHT22;59091;47.446;19.148;2023-12-29T03:34:24;4.23;82.39
71304;DHT22;59091;47.446;19.148;2023-12-29T03:36:50;4.22;82.47
71304;DHT22;59091;47.446;19.148;2023-12-29T03:39:15;4.22;82.43
71304;DHT22;59091;47.446;19.148;2023-12-29T03:41:40;4.26;83.53
71304;DHT22;59091;47.446;19.148;2023-12-29T03:44:06;4.33;83.15
71304;DHT22;59091;47.446;19.148;2023-12-29T03:46:31;4.26;82.88
71304;DHT22;59091;47.446;19.148;2023-12-29T03:48:58;4.31;82.80
71304;DHT22;59091;47.446;19.148;2023-12-29T03:51:23;4.32;82.72
71304;DHT22;59091;47.446;19.148;2023-12-29T03:53:49;4.33;82.65
71304;DHT22;59091;47.446;19.148;2023-12-29T03:56:16;4.31;82.54
71304;DHT22;59091;47.446;19.148;2023-12-29T03:58:43;4.29;82.47
71304;DHT22;59091;47.446;19.148;2023-12-29T04:01:12;4.26;82.29
71304;DHT22;59091;47.446;19.148;2023-12-29T04:03:38;4.26;82.32
71304;DHT22;59091;47.446;19.148;2023-12-29T04:06:04;4.26;82.21
71304;DHT22;59091;47.446;19.148;2023-12-29T04:08:30;4.26;82.21
71304;DHT22;59091;47.446;19.148;2023-12-29T04:10:56;4.26;82.15
71304;DHT22;59091;47.446;19.148;2023-12-29T04:13:21;4.22;82.19
71304;DHT22;59091;47.446;19.148;2023-12-29T04:15:47;4.21;82.11
71304;DHT22;59091;47.446;19.148;2023-12-29T04:18:12;4.19;82.18
71304;DHT22;59091;47.446;19.148;2023-12-29T04:20:38;4.15;82.20
71304;DHT22;59091;47.446;19.148;2023-12-29T04:23:05;4.16;82.29
71304;DHT22;59091;47.446;19.148;2023-12-29T04:25:31;4.19;82.38
71304;DHT22;59091;47.446;19.148;2023-12-29T04:27:56;4.19;82.27
71304;DHT22;59091;47.446;19.148;2023-12-29T04:30:22;4.16;82.39
71304;DHT22;59091;47.446;19.148;2023-12-29T04:32:47;4.13;82.44
71304;DHT22;59091;47.446;19.148;2023-12-29T04:35:12;4.11;82.47
71304;DHT22;59091;47.446;19.148;2023-12-29T04:37:40;4.15;82.37
71304;DHT22;59091;47.446;19.148;2023-12-29T04:40:06;4.13;82.41
71304;DHT22;59091;47.446;19.148;2023-12-29T04:42:32;4.12;82.39
71304;DHT22;59091;47.446;19.148;2023-12-29T04:44:57;4.05;82.40
71304;DHT22;59091;47.446;19.148;2023-12-29T04:47:23;4.05;82.47
71304;DHT22;59091;47.446;19.148;2023-12-29T04:49:48;4.06;82.37
71304;DHT22;59091;47.446;19.148;2023-12-29T04:52:13;4.08;82.30
71304;DHT22;59091;47.446;19.148;2023-12-29T04:54:39;4.02;82.19
71304;DHT22;59091;47.446;19.148;2023-12-29T04:57:04;4.04;82.14
71304;DHT22;59091;47.446;19.148;2023-12-29T04:59:30;4.05;82.19
71304;DHT22;59091;47.446;19.148;2023-12-29T05:01:55;4.02;82.24
71304;DHT22;59091;47.446;19.148;2023-12-29T05:04:20;4.02;82.17
71304;DHT22;59091;47.446;19.148;2023-12-29T05:06:46;4.04;82.11
71304;DHT22;59091;47.446;19.148;2023-12-29T05:09:11;4.05;82.08
71304;DHT22;59091;47.446;19.148;2023-12-29T05:11:37;3.99;81.97
71304;DHT22;59091;47.446;19.148;2023-12-29T05:14:02;3.97;81.92
71304;DHT22;59091;47.446;19.148;2023-12-29T05:16:28;3.92;81.71
71304;DHT22;59091;47.446;19.148;2023-12-29T05:18:53;3.92;82.04
71304;DHT22;59091;47.446;19.148;2023-12-29T05:21:19;3.91;82.04
71304;DHT22;59091;47.446;19.148;2023-12-29T05:23:45;3.94;82.04
71304;DHT22;59091;47.446;19.148;2023-12-29T05:26:11;3.92;82.02
71304;DHT22;59091;47.446;19.148;2023-12-29T05:28:37;3.94;82.01
71304;DHT22;59091;47.446;19.148;2023-12-29T05:31:02;3.94;81.93
71304;DHT22;59091;47.446;19.148;2023-12-29T05:33:31;3.95;82.00
71304;DHT22;59091;47.446;19.148;2023-12-29T05:35:57;3.99;81.87
71304;DHT22;59091;47.446;19.148;2023-12-29T05:38:23;3.98;82.03
71304;DHT22;59091;47.446;19.148;2023-12-29T05:40:48;3.97;81.95
71304;DHT22;59091;47.446;19.148;2023-12-29T05:43:18;3.95;81.94
71304;DHT22;59091;47.446;19.148;2023-12-29T05:45:44;3.97;81.94
71304;DHT22;59091;47.446;19.148;2023-12-29T05:48:10;4.01;81.87
71304;DHT22;59091;47.446;19.148;2023-12-29T05:50:35;3.99;81.83
71304;DHT22;59091;47.446;19.148;2023-12-29T05:53:00;4.01;81.82
71304;DHT22;59091;47.446;19.148;2023-12-29T05:55:26;3.99;81.88
71304;DHT22;59091;47.446;19.148;2023-12-29T05:57:51;3.94;81.88
71304;DHT22;59091;47.446;19.148;2023-12-29T06:00:17;3.92;81.91
71304;DHT22;59091;47.446;19.148;2023-12-29T06:02:43;3.82;82.17
71304;DHT22;59091;47.446;19.148;2023-12-29T06:05:11;3.63;82.74
71304;DHT22;59091;47.446;19.148;2023-12-29T06:07:37;3.60;82.96
71304;DHT22;59091;47.446;19.148;2023-12-29T06:10:03;3.63;83.04
71304;DHT22;59091;47.446;19.148;2023-12-29T06:12:29;3.70;82.83
71304;DHT22;59091;47.446;19.148;2023-12-29T06:14:54;3.67;82.84
71304;DHT22;59091;47.446;19.148;2023-12-29T06:17:19;3.74;82.69
71304;DHT22;59091;47.446;19.148;2023-12-29T06:19:45;3.75;82.60
71304;DHT22;59091;47.446;19.148;2023-12-29T06:22:10;3.70;82.61
71304;DHT22;59091;47.446;19.148;2023-12-29T06:24:37;3.73;82.47
71304;DHT22;59091;47.446;19.148;2023-12-29T06:27:03;3.69;82.44
71304;DHT22;59091;47.446;19.148;2023-12-29T06:29:29;3.75;82.38
71304;DHT22;59091;47.446;19.148;2023-12-29T06:31:54;3.73;82.32
71304;DHT22;59091;47.446;19.148;2023-12-29T06:34:20;3.74;82.30
71304;DHT22;59091;47.446;19.148;2023-12-29T06:36:45;3.77;82.25
71304;DHT22;59091;47.446;19.148;2023-12-29T06:39:11;3.77;82.15
71304;DHT22;59091;47.446;19.148;2023-12-29T06:41:36;3.82;82.11
71304;DHT22;59091;47.446;19.148;2023-12-29T06:44:02;3.80;81.97
71304;DHT22;59091;47.446;19.148;2023-12-29T06:46:27;3.87;81.99
71304;DHT22;59091;47.446;19.148;2023-12-29T06:48:53;3.82;81.91
71304;DHT22;59091;47.446;19.148;2023-12-29T06:51:18;3.84;81.97
71304;DHT22;59091;47.446;19.148;2023-12-29T06:53:45;3.85;81.86
71304;DHT22;59091;47.446;19.148;2023-12-29T06:56:13;3.85;81.77
71304;DHT22;59091;47.446;19.148;2023-12-29T06:58:40;3.87;81.69
71304;DHT22;59091;47.446;19.148;2023-12-29T07:01:05;3.88;81.67
71304;DHT22;59091;47.446;19.148;2023-12-29T07:03:30;3.85;81.78
71304;DHT22;59091;47.446;19.148;2023-12-29T07:05:56;3.87;81.72
71304;DHT22;59091;47.446;19.148;2023-12-29T07:08:22;3.92;81.69
71304;DHT22;59091;47.446;19.148;2023-12-29T07:10:47;3.90;81.73
71304;DHT22;59091;47.446;19.148;2023-12-29T07:13:15;3.92;81.71
71304;DHT22;59091;47.446;19.148;2023-12-29T07:15:41;3.94;81.62
71304;DHT22;59091;47.446;19.148;2023-12-29T07:18:06;3.92;81.71
71304;DHT22;59091;47.446;19.148;2023-12-29T07:20:32;3.95;81.68
71304;DHT22;59091;47.446;19.148;2023-12-29T07:22:58;3.97;81.57
71304;DHT22;59091;47.446;19.148;2023-12-29T07:25:23;4.01;81.48
71304;DHT22;59091;47.446;19.148;2023-12-29T07:27:49;4.02;81.35
71304;DHT22;59091;47.446;19.148;2023-12-29T07:30:14;4.04;81.31
71304;DHT22;59091;47.446;19.148;2023-12-29T07:32:40;4.05;81.33
71304;DHT22;59091;47.446;19.148;2023-12-29T07:35:06;4.06;81.31
71304;DHT22;59091;47.446;19.148;2023-12-29T07:37:31;4.13;81.23
71304;DHT22;59091;47.446;19.148;2023-12-29T07:39:57;4.52;84.70
71304;DHT22;59091;47.446;19.148;2023-12-29T07:42:22;4.79;86.06
71304;DHT22;59091;47.446;19.148;2023-12-29T07:44:47;4.76;83.93
71304;DHT22;59091;47.446;19.148;2023-12-29T07:47:13;4.67;82.29
71304;DHT22;59091;47.446;19.148;2023-12-29T07:49:41;4.64;81.18
71304;DHT22;59091;47.446;19.148;2023-12-29T07:52:07;4.62;80.65
71304;DHT22;59091;47.446;19.148;2023-12-29T07:54:32;4.54;80.43
71304;DHT22;59091;47.446;19.148;2023-12-29T07:56:58;4.54;80.36
71304;DHT22;59091;47.446;19.148;2023-12-29T07:59:23;4.56;80.43
71304;DHT22;59091;47.446;19.148;2023-12-29T08:01:48;4.57;80.37
71304;DHT22;59091;47.446;19.148;2023-12-29T08:04:14;4.62;81.01
71304;DHT22;59091;47.446;19.148;2023-12-29T08:06:39;4.66;81.53
71304;DHT22;59091;47.446;19.148;2023-12-29T08:09:05;4.76;81.67
71304;DHT22;59091;47.446;19.148;2023-12-29T08:11:32;4.76;81.59
71304;DHT22;59091;47.446;19.148;2023-12-29T08:13:57;4.88;81.93
71304;DHT22;59091;47.446;19.148;2023-12-29T08:16:22;5.00;81.91
71304;DHT22;59091;47.446;19.148;2023-12-29T08:18:49;5.08;81.63
71304;DHT22;59091;47.446;19.148;2023-12-29T08:21:21;5.11;81.60
71304;DHT22;59091;47.446;19.148;2023-12-29T08:23:47;5.05;81.16
71304;DHT22;59091;47.446;19.148;2023-12-29T08:26:13;5.13;81.08
71304;DHT22;59091;47.446;19.148;2023-12-29T08:28:39;5.15;80.70
71304;DHT22;59091;47.446;19.148;2023-12-29T08:31:05;5.17;80.52
71304;DHT22;59091;47.446;19.148;2023-12-29T08:33:30;5.20;80.16
71304;DHT22;59091;47.446;19.148;2023-12-29T08:35:56;5.28;80.38
71304;DHT22;59091;47.446;19.148;2023-12-29T08:38:28;5.44;80.54
71304;DHT22;59091;47.446;19.148;2023-12-29T08:40:54;5.51;80.47
71304;DHT22;59091;47.446;19.148;2023-12-29T08:43:19;5.62;80.55
71304;DHT22;59091;47.446;19.148;2023-12-29T08:45:47;6.00;85.38
71304;DHT22;59091;47.446;19.148;2023-12-29T08:48:13;6.23;83.23
71304;DHT22;59091;47.446;19.148;2023-12-29T08:50:38;6.27;83.38
71304;DHT22;59091;47.446;19.148;2023-12-29T08:53:04;6.42;82.54
71304;DHT22;59091;47.446;19.148;2023-12-29T08:55:29;6.41;80.48
71304;DHT22;59091;47.446;19.148;2023-12-29T08:57:57;6.26;79.01
71304;DHT22;59091;47.446;19.148;2023-12-29T09:00:22;6.26;78.77
71304;DHT22;59091;47.446;19.148;2023-12-29T09:02:47;6.21;79.02
71304;DHT22;59091;47.446;19.148;2023-12-29T09:05:13;5.93;78.01
71304;DHT22;59091;47.446;19.148;2023-12-29T09:07:38;6.16;82.64
71304;DHT22;59091;47.446;19.148;2023-12-29T09:10:04;6.65;82.26
71304;DHT22;59091;47.446;19.148;2023-12-29T09:12:36;6.57;78.42
71304;DHT22;59091;47.446;19.148;2023-12-29T09:15:02;6.10;76.93
71304;DHT22;59091;47.446;19.148;2023-12-29T09:17:28;6.03;76.88
71304;DHT22;59091;47.446;19.148;2023-12-29T09:19:53;6.02;77.02
71304;DHT22;59091;47.446;19.148;2023-12-29T09:22:20;6.05;77.01
71304;DHT22;59091;47.446;19.148;2023-12-29T09:24:45;6.47;84.35
71304;DHT22;59091;47.446;19.148;2023-12-29T09:27:10;6.74;84.52
71304;DHT22;59091;47.446;19.148;2023-12-29T09:29:36;6.75;80.46
71304;DHT22;59091;47.446;19.148;2023-12-29T09:32:02;6.45;77.96
71304;DHT22;59091;47.446;19.148;2023-12-29T09:34:27;6.42;77.54
71304;DHT22;59091;47.446;19.148;2023-12-29T09:36:53;6.34;77.50
71304;DHT22;59091;47.446;19.148;2023-12-29T09:39:18;6.40;77.09
71304;DHT22;59091;47.446;19.148;2023-12-29T09:41:46;7.10;83.24
71304;DHT22;59091;47.446;19.148;2023-12-29T09:44:16;7.06;79.15
71304;DHT22;59091;47.446;19.148;2023-12-29T09:46:49;6.99;76.43
71304;DHT22;59091;47.446;19.148;2023-12-29T09:49:18;6.95;75.80
71304;DHT22;59091;47.446;19.148;2023-12-29T09:51:45;6.93;75.86
71304;DHT22;59091;47.446;19.148;2023-12-29T09:54:11;6.91;75.73
71304;DHT22;59091;47.446;19.148;2023-12-29T09:56:38;6.92;75.65
71304;DHT22;59091;47.446;19.148;2023-12-29T09:59:03;6.84;75.86
71304;DHT22;59091;47.446;19.148;2023-12-29T10:01:30;6.49;76.32
71304;DHT22;59091;47.446;19.148;2023-12-29T10:03:56;6.57;76.71
71304;DHT22;59091;47.446;19.148;2023-12-29T10:06:24;6.48;77.15
71304;DHT22;59091;47.446;19.148;2023-12-29T10:08:50;6.27;77.76
71304;DHT22;59091;47.446;19.148;2023-12-29T10:11:18;6.23;77.94
71304;DHT22;59091;47.446;19.148;2023-12-29T10:13:49;6.16;78.21
71304;DHT22;59091;47.446;19.148;2023-12-29T10:16:45;6.20;77.98
71304;DHT22;59091;47.446;19.148;2023-12-29T10:19:41;6.18;78.23
71304;DHT22;59091;47.446;19.148;2023-12-29T10:22:24;6.26;78.06
71304;DHT22;59091;47.446;19.148;2023-12-29T10:24:52;6.14;78.59
71304;DHT22;59091;47.446;19.148;2023-12-29T10:27:18;6.21;78.82
71304;DHT22;59091;47.446;19.148;2023-12-29T10:29:43;6.33;79.40
71304;DHT22;59091;47.446;19.148;2023-12-29T10:32:09;6.38;79.28
71304;DHT22;59091;47.446;19.148;2023-12-29T10:34:34;6.41;79.08
71304;DHT22;59091;47.446;19.148;2023-12-29T10:37:01;6.78;84.83
71304;DHT22;59091;47.446;19.148;2023-12-29T10:39:35;6.88;81.82
71304;DHT22;59091;47.446;19.148;2023-12-29T10:42:07;6.89;80.06
71304;DHT22;59091;47.446;19.148;2023-12-29T10:44:35;6.91;79.27
71304;DHT22;59091;47.446;19.148;2023-12-29T10:47:10;6.89;78.45
71304;DHT22;59091;47.446;19.148;2023-12-29T10:49:36;6.87;78.51
71304;DHT22;59091;47.446;19.148;2023-12-29T10:52:14;6.89;78.19
71304;DHT22;59091;47.446;19.148;2023-12-29T10:54:41;6.99;78.41
71304;DHT22;59091;47.446;19.148;2023-12-29T10:57:10;6.96;78.54
71304;DHT22;59091;47.446;19.148;2023-12-29T10:59:35;6.93;78.89
71304;DHT22;59091;47.446;19.148;2023-12-29T11:02:01;6.93;78.90
71304;DHT22;59091;47.446;19.148;2023-12-29T11:04:28;6.99;78.90
71304;DHT22;59091;47.446;19.148;2023-12-29T11:06:54;7.05;79.20
71304;DHT22;59091;47.446;19.148;2023-12-29T11:09:34;7.08;78.89
71304;DHT22;59091;47.446;19.148;2023-12-29T11:12:02;7.16;79.01
71304;DHT22;59091;47.446;19.148;2023-12-29T11:14:27;7.22;79.02
71304;DHT22;59091;47.446;19.148;2023-12-29T11:16:57;7.33;79.09
71304;DHT22;59091;47.446;19.148;2023-12-29T11:19:23;7.36;79.21
71304;DHT22;59091;47.446;19.148;2023-12-29T11:21:52;7.37;79.25
71304;DHT22;59091;47.446;19.148;2023-12-29T11:24:19;7.50;79.20
71304;DHT22;59091;47.446;19.148;2023-12-29T11:26:44;7.51;79.19
71304;DHT22;59091;47.446;19.148;2023-12-29T11:29:11;7.69;78.74
71304;DHT22;59091;47.446;19.148;2023-12-29T11:31:38;7.56;78.64
71304;DHT22;59091;47.446;19.148;2023-12-29T11:34:23;7.69;78.33
71304;DHT22;59091;47.446;19.148;2023-12-29T11:36:51;7.73;78.56
71304;DHT22;59091;47.446;19.148;2023-12-29T11:39:24;7.77;78.29
71304;DHT22;59091;47.446;19.148;2023-12-29T11:42:05;7.85;78.01
71304;DHT22;59091;47.446;19.148;2023-12-29T11:44:31;7.97;77.81
71304;DHT22;59091;47.446;19.148;2023-12-29T11:46:58;7.98;78.01
71304;DHT22;59091;47.446;19.148;2023-12-29T11:49:24;8.09;77.72
71304;DHT22;59091;47.446;19.148;2023-12-29T11:51:50;7.98;77.36
71304;DHT22;59091;47.446;19.148;2023-12-29T11:54:22;7.97;77.60
71304;DHT22;59091;47.446;19.148;2023-12-29T11:56:48;8.05;77.58
71304;DHT22;59091;47.446;19.148;2023-12-29T11:59:15;8.13;78.35
71304;DHT22;59091;47.446;19.148;2023-12-29T12:01:41;8.46;80.00
71304;DHT22;59091;47.446;19.148;2023-12-29T12:12:49;8.42;76.32
71304;DHT22;59091;47.446;19.148;2023-12-29T12:15:42;8.32;76.11
71304;DHT22;59091;47.446;19.148;2023-12-29T12:18:11;8.33;76.23
71304;DHT22;59091;47.446;19.148;2023-12-29T12:20:38;8.33;76.36
71304;DHT22;59091;47.446;19.148;2023-12-29T12:25:31;8.49;76.07
71304;DHT22;59091;47.446;19.148;2023-12-29T12:28:01;8.41;76.17
71304;DHT22;59091;47.446;19.148;2023-12-29T12:30:29;8.46;76.17
71304;DHT22;59091;47.446;19.148;2023-12-29T12:32:58;8.45;76.04
71304;DHT22;59091;47.446;19.148;2023-12-29T12:35:24;8.50;76.10
71304;DHT22;59091;47.446;19.148;2023-12-29T12:38:12;8.35;76.18
71304;DHT22;59091;47.446;19.148;2023-12-29T12:40:38;8.66;75.83
71304;DHT22;59091;47.446;19.148;2023-12-29T12:43:04;8.74;75.51
71304;DHT22;59091;47.446;19.148;2023-12-29T12:45:34;8.81;75.15
71304;DHT22;59091;47.446;19.148;2023-12-29T12:48:09;8.87;74.85
71304;DHT22;59091;47.446;19.148;2023-12-29T12:50:42;8.97;74.73
71304;DHT22;59091;47.446;19.148;2023-12-29T12:53:08;9.07;74.74
71304;DHT22;59091;47.446;19.148;2023-12-29T12:55:34;9.14;74.53
71304;DHT22;59091;47.446;19.148;2023-12-29T12:58:01;9.18;74.26
71304;DHT22;59091;47.446;19.148;2023-12-29T13:00:26;9.30;74.12
71304;DHT22;59091;47.446;19.148;2023-12-29T13:02:52;9.35;74.06
71304;DHT22;59091;47.446;19.148;2023-12-29T13:05:17;9.38;73.87
71304;DHT22;59091;47.446;19.148;2023-12-29T13:07:43;9.34;73.68
71304;DHT22;59091;47.446;19.148;2023-12-29T13:10:09;9.45;73.52
71304;DHT22;59091;47.446;19.148;2023-12-29T13:12:35;9.42;73.45
71304;DHT22;59091;47.446;19.148;2023-12-29T13:15:07;9.31;73.53
71304;DHT22;59091;47.446;19.148;2023-12-29T13:17:36;9.41;73.44
71304;DHT22;59091;47.446;19.148;2023-12-29T13:20:01;9.48;73.33
71304;DHT22;59091;47.446;19.148;2023-12-29T13:22:29;9.56;73.13
71304;DHT22;59091;47.446;19.148;2023-12-29T13:24:55;10.14;80.67
71304;DHT22;59091;47.446;19.148;2023-12-29T13:27:21;10.40;77.01
71304;DHT22;59091;47.446;19.148;2023-12-29T13:29:47;10.36;72.94
71304;DHT22;59091;47.446;19.148;2023-12-29T13:32:21;10.33;71.08
71304;DHT22;59091;47.446;19.148;2023-12-29T13:38:01;10.61;73.92
71304;DHT22;59091;47.446;19.148;2023-12-29T13:40:42;10.64;71.99
71304;DHT22;59091;47.446;19.148;2023-12-29T13:43:11;10.38;70.16
71304;DHT22;59091;47.446;19.148;2023-12-29T13:45:39;10.20;70.31
71304;DHT22;59091;47.446;19.148;2023-12-29T13:48:05;10.16;70.47
71304;DHT22;59091;47.446;19.148;2023-12-29T13:50:32;10.05;70.81
71304;DHT22;59091;47.446;19.148;2023-12-29T13:52:59;9.82;71.20
71304;DHT22;59091;47.446;19.148;2023-12-29T13:55:25;9.87;71.28
71304;DHT22;59091;47.446;19.148;2023-12-29T13:57:51;9.90;71.25
71304;DHT22;59091;47.446;19.148;2023-12-29T14:00:18;9.89;71.35
71304;DHT22;59091;47.446;19.148;2023-12-29T14:10:33;9.78;71.83
71304;DHT22;59091;47.446;19.148;2023-12-29T14:13:10;9.71;71.89
71304;DHT22;59091;47.446;19.148;2023-12-29T14:15:40;9.72;72.14
71304;DHT22;59091;47.446;19.148;2023-12-29T14:20:57;9.68;72.42
71304;DHT22;59091;47.446;19.148;2023-12-29T14:23:22;9.63;72.58
71304;DHT22;59091;47.446;19.148;2023-12-29T14:25:48;9.56;73.54
71304;DHT22;59091;47.446;19.148;2023-12-29T14:28:20;9.76;76.15
71304;DHT22;59091;47.446;19.148;2023-12-29T14:30:49;9.81;75.24
71304;DHT22;59091;47.446;19.148;2023-12-29T14:33:14;9.76;73.68
71304;DHT22;59091;47.446;19.148;2023-12-29T14:35:40;9.72;73.05
71304;DHT22;59091;47.446;19.148;2023-12-29T14:38:06;9.71;72.88
71304;DHT22;59091;47.446;19.148;2023-12-29T14:40:31;9.62;72.88
71304;DHT22;59091;47.446;19.148;2023-12-29T14:43:02;9.68;74.77
71304;DHT22;59091;47.446;19.148;2023-12-29T14:45:28;9.69;74.65
71304;DHT22;59091;47.446;19.148;2023-12-29T14:47:58;9.63;73.64
71304;DHT22;59091;47.446;19.148;2023-12-29T14:50:23;9.59;73.34
71304;DHT22;59091;47.446;19.148;2023-12-29T14:52:49;9.51;73.28
71304;DHT22;59091;47.446;19.148;2023-12-29T14:55:14;9.39;73.42
71304;DHT22;59091;47.446;19.148;2023-12-29T14:57:40;9.38;73.50
71304;DHT22;59091;47.446;19.148;2023-12-29T15:00:06;9.30;73.54
71304;DHT22;59091;47.446;19.148;2023-12-29T15:02:31;9.24;73.57
71304;DHT22;59091;47.446;19.148;2023-12-29T15:04:56;9.15;73.62
71304;DHT22;59091;47.446;19.148;2023-12-29T15:07:22;9.11;73.70
71304;DHT22;59091;47.446;19.148;2023-12-29T15:09:53;9.04;73.66
71304;DHT22;59091;47.446;19.148;2023-12-29T15:12:18;8.97;73.68
71304;DHT22;59091;47.446;19.148;2023-12-29T15:14:44;8.87;73.81
71304;DHT22;59091;47.446;19.148;2023-12-29T15:17:09;8.80;73.92
71304;DHT22;59091;47.446;19.148;2023-12-29T15:19:35;8.74;74.06
71304;DHT22;59091;47.446;19.148;2023-12-29T15:22:01;8.67;74.18
71304;DHT22;59091;47.446;19.148;2023-12-29T15:24:26;8.63;74.20
71304;DHT22;59091;47.446;19.148;2023-12-29T15:26:52;8.52;74.29
71304;DHT22;59091;47.446;19.148;2023-12-29T15:29:17;8.45;74.28
71304;DHT22;59091;47.446;19.148;2023-12-29T15:31:43;8.39;74.31
71304;DHT22;59091;47.446;19.148;2023-12-29T15:34:12;8.33;74.25
71304;DHT22;59091;47.446;19.148;2023-12-29T15:36:37;8.25;74.31
71304;DHT22;59091;47.446;19.148;2023-12-29T15:39:03;8.12;74.23
71304;DHT22;59091;47.446;19.148;2023-12-29T15:41:32;8.08;74.33
71304;DHT22;59091;47.446;19.148;2023-12-29T15:43:58;8.01;74.44
71304;DHT22;59091;47.446;19.148;2023-12-29T15:46:23;7.94;74.57
71304;DHT22;59091;47.446;19.148;2023-12-29T15:48:49;7.87;74.64
71304;DHT22;59091;47.446;19.148;2023-12-29T15:51:14;7.82;74.92
71304;DHT22;59091;47.446;19.148;2023-12-29T15:53:40;7.77;75.06